Time;durP1;ratioP1;P1;durP2;ratioP2;P2;SDS_P1;SDS_P2;PMS_P1;PMS_P2;Temp;Humidity;BMP_temperature;BMP_pressure;BME280_temperature;BME280_humidity;BME280_pressure;Samples;Min_cycle;Max_cycle;Signal;HPM_P1;HPM_P2
2022/02/19 00:02:12;;;;;;;;;1.00;0.00;;;;;7.18;57.16;101455.44;5069733;28;49972;-63
2022/02/19 00:04:38;;;;;;;;;1.00;0.00;;;;;6.64;56.63;101382.44;5070822;27;49727;-63
2022/02/19 00:07:05;;;;;;;;;0.25;0.25;;;;;7.16;57.22;101475.38;5070443;28;49840;-64
2022/02/19 00:09:30;;;;;;;;;2.00;0.75;;;;;7.15;57.56;101478.81;5070604;28;49590;-64
2022/02/19 00:11:56;;;;;;;;;0.00;0.00;;;;;6.91;57.15;101445.47;5070476;28;49647;-63
2022/02/19 00:14:22;;;;;;;;;0.25;0.25;;;;;6.96;57.95;101459.63;5070791;28;49946;-63
2022/02/19 00:16:47;;;;;;;;;1.00;1.00;;;;;7.01;57.42;101479.00;5070114;27;50491;-63
2022/02/19 00:19:13;;;;;;;;;2.25;1.00;;;;;7.05;58.04;101489.66;5070402;27;49843;-63
2022/02/19 00:21:38;;;;;;;;;3.50;2.25;;;;;7.04;58.08;101492.19;5063847;27;49749;-63
2022/02/19 00:24:04;;;;;;;;;2.50;1.00;;;;;7.00;58.36;101492.88;5070481;28;49833;-63
2022/02/19 00:26:29;;;;;;;;;3.00;1.75;;;;;6.96;58.68;101490.94;5070092;27;50293;-63
2022/02/19 00:28:55;;;;;;;;;2.00;0.00;;;;;6.96;58.32;101507.50;5070078;28;49762;-63
2022/02/19 00:31:20;;;;;;;;;0.50;0.00;;;;;6.84;58.33;101488.63;5070044;27;49839;-63
2022/02/19 00:33:46;;;;;;;;;3.00;0.00;;;;;6.90;58.67;101488.94;5070367;28;49791;-63
2022/02/19 00:36:11;;;;;;;;;0.00;0.00;;;;;6.89;58.88;101493.25;5070004;28;50046;-63
2022/02/19 00:38:36;;;;;;;;;2.00;1.00;;;;;6.86;59.27;101500.06;5070080;28;49680;-63
2022/02/19 00:41:02;;;;;;;;;0.75;0.75;;;;;6.81;58.75;101505.06;5070244;28;49786;-63
2022/02/19 00:43:27;;;;;;;;;1.00;0.75;;;;;6.83;58.94;101510.34;5070325;28;49915;-63
2022/02/19 00:45:55;;;;;;;;;4.50;3.00;;;;;6.81;59.29;101512.00;5069622;28;50075;-63
2022/02/19 00:48:21;;;;;;;;;1.25;0.00;;;;;6.63;58.92;101495.44;5070025;27;49941;-63
2022/02/19 00:50:46;;;;;;;;;0.50;0.50;;;;;6.76;59.44;101526.53;5070054;27;49858;-63
2022/02/19 00:53:12;;;;;;;;;2.50;2.50;;;;;6.72;59.16;101521.97;5070349;27;49863;-63
2022/02/19 00:55:37;;;;;;;;;2.00;0.00;;;;;6.47;59.14;101488.59;5069746;28;50000;-63
2022/02/19 00:58:02;;;;;;;;;2.25;1.00;;;;;6.71;58.91;101536.75;5069639;28;51412;-63
2022/02/19 01:00:28;;;;;;;;;1.00;1.00;;;;;6.68;59.25;101518.34;5069965;28;49791;-63
2022/02/19 01:02:53;;;;;;;;;5.00;1.00;;;;;6.74;58.79;101525.56;5069846;28;49986;-63
2022/02/19 01:05:18;;;;;;;;;1.50;1.50;;;;;6.68;59.24;101531.38;5069694;28;50435;-63
2022/02/19 01:07:44;;;;;;;;;0.25;0.25;;;;;6.68;58.78;101526.16;5069755;28;49986;-63
2022/02/19 01:10:09;;;;;;;;;1.50;1.50;;;;;6.71;58.95;101531.53;5069896;27;49984;-64
2022/02/19 01:12:36;;;;;;;;;1.75;0.75;;;;;6.69;59.00;101533.16;5070117;28;49956;-63
2022/02/19 01:15:06;;;;;;;;;2.75;0.00;;;;;6.70;58.90;101547.13;5072812;27;49910;-63
2022/02/19 01:17:31;;;;;;;;;1.00;0.50;;;;;6.59;59.01;101531.84;5072953;27;49862;-63
2022/02/19 01:19:57;;;;;;;;;0.00;0.00;;;;;6.69;58.66;101558.38;5073260;28;49963;-63
2022/02/19 01:22:22;;;;;;;;;1.50;1.50;;;;;6.68;58.23;101549.66;5073358;28;49787;-63
2022/02/19 01:24:47;;;;;;;;;1.75;1.00;;;;;6.61;59.03;101542.34;5073019;28;50831;-63
2022/02/19 01:27:12;;;;;;;;;1.25;1.25;;;;;6.66;58.69;101553.91;5072877;27;49897;-63
2022/02/19 01:29:38;;;;;;;;;0.50;0.50;;;;;6.62;59.30;101545.84;5073009;28;49848;-63
2022/02/19 01:32:03;;;;;;;;;2.00;0.00;;;;;6.23;59.33;101481.34;5072862;27;50026;-64
2022/02/19 01:34:29;;;;;;;;;1.00;1.00;;;;;6.46;58.69;101523.31;5072724;28;50586;-63
2022/02/19 01:36:55;;;;;;;;;1.50;1.00;;;;;6.63;58.71;101558.94;5072981;28;49903;-63
2022/02/19 01:39:20;;;;;;;;;0.25;0.25;;;;;6.62;58.87;101564.09;5073091;28;49811;-63
2022/02/19 01:41:45;;;;;;;;;0.25;0.25;;;;;6.61;59.16;101558.00;5073005;28;49728;-64
2022/02/19 01:44:13;;;;;;;;;1.00;1.00;;;;;6.42;59.16;101530.09;5072687;28;50382;-64
2022/02/19 01:46:39;;;;;;;;;0.50;0.50;;;;;6.60;59.25;101557.09;5072391;28;49801;-62
2022/02/19 01:49:05;;;;;;;;;0.50;0.50;;;;;6.58;59.91;101566.56;5072905;28;49853;-63
2022/02/19 01:51:33;;;;;;;;;1.00;1.00;;;;;6.59;60.07;101557.91;5072865;27;49964;-63
2022/02/19 01:54:07;;;;;;;;;1.00;1.00;;;;;6.58;59.83;101558.75;5072479;28;50681;-63
2022/02/19 01:56:36;;;;;;;;;2.00;1.00;;;;;6.54;60.08;101568.94;5072780;28;49720;-63
2022/02/19 01:59:05;;;;;;;;;1.00;1.00;;;;;6.51;60.11;101568.78;5072657;28;50050;-63
2022/02/19 02:01:30;;;;;;;;;0.25;0.25;;;;;6.51;60.10;101572.28;5054203;28;49958;-63
2022/02/19 02:03:55;;;;;;;;;5.00;0.25;;;;;6.37;60.59;101547.25;5072290;28;50735;-63
2022/02/19 02:06:24;;;;;;;;;1.50;1.50;;;;;6.28;60.58;101537.25;5072412;27;49774;-62
2022/02/19 02:08:50;;;;;;;;;4.25;1.25;;;;;6.30;60.22;101560.78;5072585;27;49855;-63
2022/02/19 02:11:16;;;;;;;;;1.50;0.75;;;;;6.43;59.96;101562.28;5072566;28;49721;-63
2022/02/19 02:13:42;;;;;;;;;1.00;0.00;;;;;6.39;60.08;101565.56;5072115;28;51665;-63
2022/02/19 02:16:07;;;;;;;;;1.00;1.00;;;;;6.31;60.77;101560.84;5053829;28;49959;-63
2022/02/19 02:18:32;;;;;;;;;0.75;0.50;;;;;6.35;60.59;101574.94;5072474;28;49824;-64
2022/02/19 02:20:58;;;;;;;;;1.75;1.75;;;;;6.34;61.24;101583.56;5072441;28;49986;-63
2022/02/19 02:23:24;;;;;;;;;0.75;0.75;;;;;6.30;61.33;101581.66;5071980;28;49955;-63
2022/02/19 02:25:52;;;;;;;;;3.00;1.00;;;;;6.29;61.62;101572.03;5071807;28;49800;-63
2022/02/19 02:28:19;;;;;;;;;2.75;1.75;;;;;6.31;61.52;101580.81;5065885;27;49980;-65
2022/02/19 02:30:45;;;;;;;;;1.75;0.50;;;;;6.25;62.05;101581.41;5065387;27;50037;-68
2022/02/19 02:33:16;;;;;;;;;2.25;2.00;;;;;6.28;61.79;101573.75;5071876;28;50760;-64
2022/02/19 02:35:41;;;;;;;;;5.50;5.50;;;;;6.18;61.21;101557.56;5065574;28;49748;-65
2022/02/19 02:38:08;;;;;;;;;5.75;4.00;;;;;6.19;60.95;101565.47;5072038;28;49815;-64
2022/02/19 02:40:34;;;;;;;;;14.00;6.00;;;;;6.18;61.64;101562.78;5071979;28;50075;-68
2022/02/19 02:43:00;;;;;;;;;12.50;7.50;;;;;6.20;61.70;101569.84;5071638;28;50434;-64
2022/02/19 02:45:25;;;;;;;;;9.00;9.00;;;;;6.18;61.79;101571.50;5071771;28;50038;-63
2022/02/19 02:47:51;;;;;;;;;9.50;6.75;;;;;6.16;61.75;101580.91;5071292;28;49839;-63
2022/02/19 02:50:16;;;;;;;;;7.00;4.00;;;;;6.14;62.04;101586.88;5072039;28;49752;-63
2022/02/19 02:52:42;;;;;;;;;7.00;3.00;;;;;5.83;62.22;101545.28;5071537;28;50452;-63
2022/02/19 02:55:09;;;;;;;;;1.75;1.00;;;;;5.62;62.29;101525.09;5071454;28;49893;-62
2022/02/19 02:57:36;;;;;;;;;4.75;2.50;;;;;5.99;62.53;101580.06;5071745;27;49730;-63
2022/02/19 03:00:04;;;;;;;;;1.00;1.00;;;;;5.95;62.58;101595.44;5071826;28;49734;-62
2022/02/19 03:02:34;;;;;;;;;2.00;1.00;;;;;5.94;62.64;101596.28;5052913;28;50939;-63
2022/02/19 03:05:00;;;;;;;;;1.00;1.00;;;;;5.77;62.31;101571.00;5071007;28;49739;-63
2022/02/19 03:07:26;;;;;;;;;1.50;0.00;;;;;5.90;63.14;101600.44;5071608;28;49864;-63
2022/02/19 03:09:51;;;;;;;;;0.00;0.00;;;;;5.86;63.30;101590.63;5071727;28;49892;-63
2022/02/19 03:12:16;;;;;;;;;1.75;1.00;;;;;5.86;63.35;101595.81;5071155;28;54847;-62
2022/02/19 03:14:42;;;;;;;;;4.75;1.00;;;;;5.88;62.81;101611.53;5071421;28;50051;-63
2022/02/19 03:17:07;;;;;;;;;4.50;0.00;;;;;5.80;63.46;101602.44;5071264;27;49895;-62
2022/02/19 03:19:32;;;;;;;;;2.00;1.00;;;;;5.81;63.41;101609.44;5071440;28;49755;-63
2022/02/19 03:21:58;;;;;;;;;0.00;0.00;;;;;5.56;63.71;101571.66;5071219;28;50681;-63
2022/02/19 03:24:23;;;;;;;;;0.00;0.00;;;;;5.69;63.82;101594.94;5071218;27;49613;-66
2022/02/19 03:26:48;;;;;;;;;1.00;0.00;;;;;5.77;63.34;101617.88;5071093;28;49926;-64
2022/02/19 03:29:14;;;;;;;;;0.75;0.00;;;;;5.74;64.02;101613.41;5071205;28;49846;-66
2022/02/19 03:31:39;;;;;;;;;1.75;1.75;;;;;5.72;63.77;101621.16;5070708;28;49743;-65
2022/02/19 03:34:05;;;;;;;;;1.75;1.00;;;;;5.71;63.84;101616.75;5071148;27;50064;-64
2022/02/19 03:36:30;;;;;;;;;3.00;2.00;;;;;5.38;63.16;101555.91;5070398;28;49693;-65
2022/02/19 03:38:55;;;;;;;;;0.00;0.00;;;;;5.71;63.93;101613.25;5071144;28;49759;-64
2022/02/19 03:41:21;;;;;;;;;1.00;1.00;;;;;5.45;64.56;101585.81;5071045;28;50057;-63
2022/02/19 03:43:46;;;;;;;;;1.00;1.00;;;;;5.57;63.88;101607.28;5070866;27;49846;-65
2022/02/19 03:46:12;;;;;;;;;2.00;0.25;;;;;5.70;63.73;101617.59;5070514;28;49640;-64
2022/02/19 03:48:37;;;;;;;;;2.00;0.50;;;;;5.34;64.19;101563.50;5071145;28;49620;-62
2022/02/19 03:51:05;;;;;;;;;5.75;3.25;;;;;5.66;64.01;101632.94;5070656;28;50655;-67
2022/02/19 03:53:30;;;;;;;;;1.00;1.00;;;;;5.55;64.16;101623.66;5070701;28;50064;-64
2022/02/19 03:55:56;;;;;;;;;1.00;1.00;;;;;5.57;64.33;101633.34;5070861;28;49792;-67
2022/02/19 03:58:21;;;;;;;;;1.00;1.00;;;;;5.56;64.27;101635.88;5071004;28;49886;-63
2022/02/19 04:00:46;;;;;;;;;1.25;1.00;;;;;5.55;64.63;101628.88;5070098;28;52131;-65
2022/02/19 04:03:12;;;;;;;;;1.00;1.00;;;;;5.55;64.32;101636.69;5070486;28;49827;-63
2022/02/19 04:05:37;;;;;;;;;1.25;1.00;;;;;5.14;64.54;101573.72;5070222;28;50079;-63
2022/02/19 04:08:05;;;;;;;;;1.00;1.00;;;;;5.53;64.30;101633.09;5070662;27;49730;-63
2022/02/19 04:10:30;;;;;;;;;3.75;2.00;;;;;5.41;63.92;101622.91;5070199;28;51357;-63
2022/02/19 04:12:56;;;;;;;;;1.00;1.00;;;;;5.54;64.32;101643.59;5070589;28;49834;-63
2022/02/19 04:15:21;;;;;;;;;0.25;0.25;;;;;5.53;64.07;101652.22;5070568;28;49767;-63
2022/02/19 04:17:47;;;;;;;;;0.75;0.75;;;;;5.26;64.31;101609.94;5070344;28;49691;-62
2022/02/19 04:20:12;;;;;;;;;1.00;1.00;;;;;5.45;63.92;101636.16;5070260;28;49777;-62
2022/02/19 04:22:41;;;;;;;;;1.25;1.25;;;;;5.53;64.54;101659.16;5070293;28;50050;-63
2022/02/19 04:25:08;;;;;;;;;1.00;1.00;;;;;5.54;64.22;101658.34;5070530;28;49979;-63
2022/02/19 04:27:33;;;;;;;;;1.75;0.75;;;;;5.55;63.94;101663.63;5070461;28;49809;-63
2022/02/19 04:29:58;;;;;;;;;1.00;0.00;;;;;5.30;64.22;101616.19;5069774;28;58299;-62
2022/02/19 04:32:23;;;;;;;;;0.25;0.25;;;;;5.54;63.90;101668.75;5070142;28;49831;-62
2022/02/19 04:34:49;;;;;;;;;0.00;0.00;;;;;5.54;64.35;101668.75;5070191;28;49612;-63
2022/02/19 04:37:14;;;;;;;;;1.75;0.00;;;;;5.55;64.30;101680.97;5070297;28;49850;-62
2022/02/19 04:39:39;;;;;;;;;4.00;1.00;;;;;5.35;64.15;101652.09;5070087;28;50774;-63
2022/02/19 04:42:05;;;;;;;;;2.00;1.00;;;;;5.51;64.16;101692.94;5070104;28;49912;-63
2022/02/19 04:44:30;;;;;;;;;1.50;1.50;;;;;5.54;64.33;101692.19;5070162;28;49631;-62
2022/02/19 04:46:55;;;;;;;;;1.50;0.75;;;;;5.55;64.23;101694.88;5070083;28;49624;-62
2022/02/19 04:49:21;;;;;;;;;4.75;0.75;;;;;5.20;64.39;101651.22;5073664;27;50757;-63
2022/02/19 04:51:46;;;;;;;;;0.00;0.00;;;;;5.56;63.97;101707.09;5073494;27;49725;-63
2022/02/19 04:54:11;;;;;;;;;1.00;1.00;;;;;5.55;64.10;101720.03;5073811;27;49836;-62
2022/02/19 04:56:37;;;;;;;;;6.25;1.00;;;;;5.25;64.15;101664.50;5073831;27;49620;-62
2022/02/19 04:59:02;;;;;;;;;1.00;1.00;;;;;5.54;64.39;101718.22;5073457;28;49797;-62
2022/02/19 05:01:27;;;;;;;;;1.00;1.00;;;;;5.54;64.71;101719.13;5073284;28;50240;-62
2022/02/19 05:03:54;;;;;;;;;1.00;1.00;;;;;5.53;64.01;101719.94;5073357;28;49661;-63
2022/02/19 05:06:20;;;;;;;;;2.25;0.00;;;;;5.32;64.27;101693.59;5073524;28;49766;-63
2022/02/19 05:08:45;;;;;;;;;0.50;0.50;;;;;5.51;64.09;101726.78;5073244;27;49791;-62
2022/02/19 05:11:11;;;;;;;;;0.00;0.00;;;;;5.35;64.25;101701.56;5073441;27;49645;-62
2022/02/19 05:13:36;;;;;;;;;2.00;1.00;;;;;5.51;63.86;101720.69;5073422;27;49826;-63
2022/02/19 05:16:02;;;;;;;;;1.75;1.75;;;;;5.49;63.55;101730.97;5073281;27;49822;-63
2022/02/19 05:18:28;;;;;;;;;0.00;0.00;;;;;5.27;64.36;101712.34;5073182;28;49711;-63
2022/02/19 05:20:53;;;;;;;;;1.75;0.25;;;;;5.21;64.58;101697.31;5073078;28;50028;-63
2022/02/19 05:23:21;;;;;;;;;0.00;0.00;;;;;5.11;64.17;101693.25;5073363;28;49673;-63
2022/02/19 05:25:47;;;;;;;;;4.00;2.00;;;;;5.24;65.07;101710.47;5073200;28;50173;-63
2022/02/19 05:28:13;;;;;;;;;0.50;0.00;;;;;5.06;64.65;101686.00;5073032;28;50812;-62
2022/02/19 05:30:38;;;;;;;;;0.25;0.25;;;;;5.40;64.44;101743.47;5072587;28;49871;-63
2022/02/19 05:33:04;;;;;;;;;0.75;0.00;;;;;5.34;64.90;101730.13;5072997;28;49895;-63
2022/02/19 05:35:29;;;;;;;;;1.50;1.50;;;;;5.33;65.05;101733.53;5073105;27;49625;-63
2022/02/19 05:37:55;;;;;;;;;0.00;0.00;;;;;5.15;64.45;101705.63;5072770;28;50007;-62
2022/02/19 05:40:20;;;;;;;;;0.00;0.00;;;;;5.30;64.41;101735.94;5073054;27;49779;-62
2022/02/19 05:42:45;;;;;;;;;1.50;1.00;;;;;5.30;64.52;101738.56;5072957;27;49588;-62
2022/02/19 05:45:11;;;;;;;;;1.00;1.00;;;;;5.28;64.94;101737.56;5073004;28;49719;-63
2022/02/19 05:47:36;;;;;;;;;4.00;1.00;;;;;4.96;64.39;101687.16;5072354;28;50225;-62
2022/02/19 05:50:02;;;;;;;;;0.00;0.00;;;;;5.16;64.37;101730.84;5072758;27;49665;-63
2022/02/19 05:52:28;;;;;;;;;1.25;1.25;;;;;5.21;64.38;101741.56;5072696;28;49877;-62
2022/02/19 05:54:54;;;;;;;;;4.00;1.75;;;;;5.20;64.91;101736.22;5072906;27;49989;-62
2022/02/19 05:57:20;;;;;;;;;1.00;1.00;;;;;5.01;64.99;101719.53;5077679;27;50911;-62
2022/02/19 05:59:46;;;;;;;;;2.00;0.50;;;;;5.07;64.79;101726.81;5059011;27;50022;-62
2022/02/19 06:02:11;;;;;;;;;3.50;0.25;;;;;4.89;64.95;101700.63;5072298;27;49885;-62
2022/02/19 06:04:36;;;;;;;;;2.75;1.00;;;;;5.08;64.90;101739.91;5053978;27;49885;-63
2022/02/19 06:07:02;;;;;;;;;4.00;2.00;;;;;5.05;65.38;101736.25;5072148;27;49869;-63
2022/02/19 06:09:27;;;;;;;;;1.00;1.00;;;;;5.02;65.22;101747.38;5078673;27;49700;-62
2022/02/19 06:11:53;;;;;;;;;4.00;0.75;;;;;5.00;64.86;101737.69;5075984;27;49734;-62
2022/02/19 06:14:18;;;;;;;;;1.00;0.00;;;;;4.73;65.30;101705.72;5072410;27;49759;-62
2022/02/19 06:16:43;;;;;;;;;1.00;1.00;;;;;4.95;64.97;101741.72;5076982;27;50421;-63
2022/02/19 06:19:09;;;;;;;;;0.75;0.75;;;;;4.98;65.72;101750.59;5072086;28;49703;-63
2022/02/19 06:21:34;;;;;;;;;2.25;1.50;;;;;4.54;65.49;101675.16;5076029;27;50076;-63
2022/02/19 06:23:59;;;;;;;;;4.50;0.50;;;;;5.01;65.26;101755.06;5071996;27;49932;-62
2022/02/19 06:26:25;;;;;;;;;5.75;2.50;;;;;4.88;65.38;101725.75;5071739;27;50750;-62
2022/02/19 06:28:50;;;;;;;;;1.00;0.25;;;;;4.93;64.92;101749.44;5071919;27;49614;-62
2022/02/19 06:31:15;;;;;;;;;1.00;1.00;;;;;4.97;65.25;101754.00;5073336;27;49844;-62
2022/02/19 06:33:41;;;;;;;;;1.75;1.00;;;;;4.84;65.34;101738.50;5071970;27;49771;-62
2022/02/19 06:36:07;;;;;;;;;1.50;0.25;;;;;4.95;64.93;101767.75;5071644;27;50563;-62
2022/02/19 06:38:39;;;;;;;;;4.25;2.50;;;;;4.94;65.78;101766.84;5053806;28;49775;-62
2022/02/19 06:41:05;;;;;;;;;3.00;3.00;;;;;4.95;66.07;101772.97;5075965;27;49808;-62
2022/02/19 06:43:30;;;;;;;;;4.00;2.25;;;;;4.51;65.54;101703.56;5072029;27;49958;-63
2022/02/19 06:45:55;;;;;;;;;5.00;3.00;;;;;4.93;65.83;101780.69;5071212;27;50808;-62
2022/02/19 06:48:21;;;;;;;;;1.00;1.00;;;;;4.87;65.59;101775.09;5071697;28;49809;-62
2022/02/19 06:50:46;;;;;;;;;2.00;0.25;;;;;4.94;65.54;101792.88;5075298;27;49762;-62
2022/02/19 06:53:11;;;;;;;;;1.25;1.00;;;;;4.94;65.00;101794.59;5071886;28;49676;-63
2022/02/19 06:55:37;;;;;;;;;0.25;0.25;;;;;4.85;65.21;101797.53;5071648;27;49990;-62
2022/02/19 06:58:02;;;;;;;;;3.00;2.00;;;;;4.93;64.85;101808.41;5069789;27;50086;-63
2022/02/19 07:00:27;;;;;;;;;4.00;2.00;;;;;4.87;65.80;101809.81;5071571;27;49904;-63
2022/02/19 07:02:53;;;;;;;;;1.75;0.00;;;;;4.89;65.07;101813.41;5078668;27;49754;-68
2022/02/19 07:05:18;;;;;;;;;0.00;0.00;;;;;4.87;65.48;101814.13;5071372;27;49830;-63
2022/02/19 07:07:44;;;;;;;;;4.00;1.75;;;;;4.88;65.57;101819.41;5071121;27;49865;-63
2022/02/19 07:10:10;;;;;;;;;3.00;3.00;;;;;4.91;66.00;101813.47;5076954;27;50181;-63
2022/02/19 07:12:37;;;;;;;;;1.00;0.50;;;;;4.91;65.31;101816.09;5070724;27;49971;-63
2022/02/19 07:15:05;;;;;;;;;7.50;1.00;;;;;4.93;64.96;101819.72;5053396;28;50924;-62
2022/02/19 07:17:31;;;;;;;;;3.00;0.50;;;;;4.62;65.20;101761.41;5073997;27;49637;-62
2022/02/19 07:19:56;;;;;;;;;5.00;4.00;;;;;4.91;66.03;101813.47;5071231;27;49887;-63
2022/02/19 07:22:21;;;;;;;;;1.50;1.00;;;;;4.98;65.86;101828.66;5054122;28;49959;-63
2022/02/19 07:24:47;;;;;;;;;2.50;2.50;;;;;4.97;65.93;101823.38;5070723;27;54418;-64
2022/02/19 07:27:12;;;;;;;;;1.00;1.00;;;;;4.95;65.67;101825.91;5070796;27;50016;-62
2022/02/19 07:29:37;;;;;;;;;6.50;1.50;;;;;4.98;65.67;101836.47;5078489;27;49678;-63
2022/02/19 07:32:03;;;;;;;;;5.00;1.00;;;;;5.02;65.69;101841.06;5070819;27;49827;-63
2022/02/19 07:34:28;;;;;;;;;0.25;0.00;;;;;5.08;65.05;101840.53;5070721;27;50622;-63
2022/02/19 07:36:54;;;;;;;;;2.00;1.00;;;;;4.44;65.27;101738.72;5070595;27;50059;-63
2022/02/19 07:39:19;;;;;;;;;3.00;1.25;;;;;5.11;65.08;101841.59;5075577;27;49850;-64
2022/02/19 07:41:45;;;;;;;;;0.50;0.50;;;;;5.11;64.82;101851.13;5078292;27;49783;-64
2022/02/19 07:44:11;;;;;;;;;3.50;2.00;;;;;4.99;65.04;101832.16;5070547;27;51382;-63
2022/02/19 07:46:36;;;;;;;;;1.50;1.50;;;;;5.14;65.33;101859.13;5070383;27;49772;-63
2022/02/19 07:58:18;;;;;;;;;0.50;0.50;;;;;5.16;64.84;101861.00;5070630;27;50032;-63
2022/02/19 07:59:59;;;;;;;;;1.00;1.00;;;;;5.09;64.67;101832.81;5070556;27;50030;-71
2022/02/19 08:02:24;;;;;;;;;1.00;1.00;;;;;5.02;65.09;101827.13;5072316;27;49716;-70
2022/02/19 08:04:49;;;;;;;;;4.25;1.75;;;;;5.44;64.47;101886.09;5071245;27;50001;-65
2022/02/19 08:07:15;;;;;;;;;0.25;0.25;;;;;5.46;64.99;101885.38;5070231;27;49858;-66
2022/02/19 08:09:40;;;;;;;;;4.00;2.00;;;;;5.52;64.10;101883.94;5075561;27;49959;-67
2022/02/19 08:12:06;;;;;;;;;1.50;0.50;;;;;5.56;63.69;101886.81;5070613;27;49621;-67
2022/02/19 08:14:31;;;;;;;;;1.00;1.00;;;;;5.45;64.20;101865.34;5070395;27;50578;-66
2022/02/19 08:16:57;;;;;;;;;6.00;3.25;;;;;5.66;64.04;101880.44;5076358;27;50008;-67
2022/02/19 08:19:22;;;;;;;;;1.50;1.00;;;;;5.72;64.05;101886.91;5072838;27;49724;-67
2022/02/19 08:21:47;;;;;;;;;1.00;1.00;;;;;5.75;63.53;101891.38;5063608;27;49847;-66
2022/02/19 08:24:13;;;;;;;;;0.00;0.00;;;;;5.06;63.75;101757.16;5070175;28;51415;-66
2022/02/19 08:26:38;;;;;;;;;1.50;0.50;;;;;5.73;63.44;101856.53;5074143;27;49699;-67
2022/02/19 08:29:05;;;;;;;;;1.25;1.25;;;;;5.91;62.98;101883.69;5070061;27;50187;-66
2022/02/19 08:31:31;;;;;;;;;1.00;1.00;;;;;5.95;63.16;101882.16;5072724;27;49752;-65
2022/02/19 08:33:56;;;;;;;;;2.00;2.00;;;;;5.99;63.02;101887.63;5075121;27;49655;-65
2022/02/19 08:36:22;;;;;;;;;2.00;2.00;;;;;6.03;63.34;101891.31;5069920;27;49694;-64
2022/02/19 08:38:47;;;;;;;;;2.00;1.25;;;;;6.06;63.11;101887.97;5074475;27;49837;-64
2022/02/19 08:41:13;;;;;;;;;1.25;1.25;;;;;6.10;62.72;101882.13;5071927;27;49812;-65
2022/02/19 08:43:38;;;;;;;;;5.00;1.00;;;;;6.19;62.81;101887.88;5069787;27;50250;-64
2022/02/19 08:46:03;;;;;;;;;1.50;1.25;;;;;5.99;62.49;101847.66;5069815;27;49882;-65
2022/02/19 08:48:30;;;;;;;;;2.00;2.00;;;;;6.27;62.06;101883.94;5069873;27;49866;-65
2022/02/19 08:50:55;;;;;;;;;0.00;0.00;;;;;6.21;61.55;101873.19;5075562;27;49935;-71
2022/02/19 08:53:23;;;;;;;;;5.25;1.75;;;;;6.27;62.02;101882.28;5070066;27;51241;-65
2022/02/19 08:55:49;;;;;;;;;1.75;0.50;;;;;6.44;62.05;101906.66;5070544;27;49798;-65
2022/02/19 08:58:15;;;;;;;;;1.25;1.25;;;;;6.23;60.77;101858.53;5069494;27;49779;-65
2022/02/19 09:00:40;;;;;;;;;1.25;1.25;;;;;6.49;62.24;101889.56;5070976;27;49952;-65
2022/02/19 09:03:06;;;;;;;;;2.00;0.75;;;;;6.48;61.18;101868.63;5081552;27;50023;-65
2022/02/19 09:05:32;;;;;;;;;2.25;1.75;;;;;6.67;61.13;101888.78;5070572;27;50040;-65
2022/02/19 09:07:57;;;;;;;;;1.00;1.00;;;;;6.80;60.98;101901.66;5071099;27;50198;-65
2022/02/19 09:10:22;;;;;;;;;3.50;1.75;;;;;6.86;61.53;101908.13;5075412;27;49709;-65
2022/02/19 09:12:49;;;;;;;;;2.50;0.25;;;;;6.89;60.31;101918.72;5069437;27;50342;-65
2022/02/19 09:15:20;;;;;;;;;0.00;0.00;;;;;6.93;60.54;101914.56;5063179;27;49955;-65
2022/02/19 09:17:45;;;;;;;;;0.50;0.50;;;;;6.96;60.21;101912.13;5069584;28;49561;-65
2022/02/19 09:20:12;;;;;;;;;1.00;1.00;;;;;7.00;59.61;101916.69;5069693;27;49701;-65
2022/02/19 09:22:38;;;;;;;;;3.75;0.75;;;;;7.03;60.44;101910.72;5062695;27;50515;-65
2022/02/19 09:25:09;;;;;;;;;1.00;1.00;;;;;7.03;60.30;101910.72;5069213;27;49660;-65
2022/02/19 09:27:35;;;;;;;;;3.25;2.00;;;;;7.04;59.88;101900.34;5067190;27;49597;-65
2022/02/19 09:30:01;;;;;;;;;1.50;0.75;;;;;7.12;60.07;101906.00;5069202;27;49743;-65
2022/02/19 09:32:26;;;;;;;;;2.25;1.00;;;;;7.15;60.38;101906.19;5070273;27;49815;-65
2022/02/19 09:34:52;;;;;;;;;7.00;3.00;;;;;6.79;59.12;101822.47;5077108;27;50449;-65
2022/02/19 09:37:17;;;;;;;;;5.00;2.50;;;;;7.11;59.42;101867.66;5073782;27;49669;-65
2022/02/19 09:39:43;;;;;;;;;1.00;1.00;;;;;7.33;60.34;101887.94;5074943;27;50106;-64
2022/02/19 09:42:11;;;;;;;;;1.75;1.00;;;;;7.19;59.27;101861.13;5074372;27;50606;-64
2022/02/19 09:44:36;;;;;;;;;2.50;1.50;;;;;7.25;59.77;101861.44;5072560;27;49948;-65
2022/02/19 09:47:01;;;;;;;;;0.75;0.75;;;;;7.39;58.51;101886.53;5076654;27;49926;-64
2022/02/19 09:49:28;;;;;;;;;2.00;2.00;;;;;7.47;58.50;101894.78;5073277;27;50074;-65
2022/02/19 09:51:55;;;;;;;;;1.25;1.25;;;;;7.20;59.88;101834.16;5076529;27;49806;-65
2022/02/19 09:54:21;;;;;;;;;3.50;3.00;;;;;7.59;58.72;101886.66;5073775;27;49875;-65
2022/02/19 09:56:47;;;;;;;;;4.25;2.00;;;;;7.70;58.93;101909.00;5056417;28;49839;-65
2022/02/19 09:59:12;;;;;;;;;5.50;3.00;;;;;7.70;59.16;101886.38;5071880;27;49849;-64
2022/02/19 10:01:39;;;;;;;;;0.00;0.00;;;;;7.78;58.47;101891.09;5074476;27;50367;-65
2022/02/19 10:04:06;;;;;;;;;0.25;0.25;;;;;7.69;58.35;101858.44;5072159;28;50109;-65
2022/02/19 10:06:34;;;;;;;;;2.75;0.75;;;;;7.86;58.03;101867.13;5075247;27;49898;-65
2022/02/19 10:09:08;;;;;;;;;3.00;2.00;;;;;8.06;57.98;101881.19;5076716;27;49627;-65
2022/02/19 10:11:33;;;;;;;;;1.00;0.50;;;;;7.62;57.91;101775.31;5076731;27;49906;-65
2022/02/19 10:13:59;;;;;;;;;1.00;1.00;;;;;8.25;58.88;101859.41;5073376;27;49777;-66
2022/02/19 10:16:29;;;;;;;;;0.00;0.00;;;;;8.43;56.83;101873.41;5073541;27;49871;-67
2022/02/19 10:18:54;;;;;;;;;1.00;0.50;;;;;8.29;56.29;101835.19;5072286;27;49903;-80
2022/02/19 10:21:24;;;;;;;;;1.00;1.00;;;;;8.29;56.20;101804.69;5057811;28;52345;-73
2022/02/19 10:23:58;;;;;;;;;1.75;1.00;;;;;8.15;55.86;101761.31;5072097;28;49735;-73
2022/02/19 10:26:31;;;;;;;;;1.25;1.25;;;;;8.91;55.35;101857.28;5072266;27;49787;-68
2022/02/19 10:29:00;;;;;;;;;0.50;0.50;;;;;8.96;54.79;101864.50;5055906;28;49862;-67
2022/02/19 10:31:27;;;;;;;;;2.00;1.00;;;;;9.01;55.04;101856.84;5071603;27;50501;-62
2022/02/19 10:34:10;;;;;;;;;4.00;1.75;;;;;9.08;55.37;101862.44;5071799;27;49940;-62
2022/02/19 10:36:50;;;;;;;;;0.75;0.75;;;;;9.01;54.30;101844.66;5077022;27;49760;-64
2022/02/19 10:39:27;;;;;;;;;1.00;1.00;;;;;9.17;55.59;101857.59;5066796;27;49852;-65
2022/02/19 10:42:03;;;;;;;;;1.00;1.00;;;;;8.99;53.46;101807.03;5076944;27;50801;-74
2022/02/19 10:44:31;;;;;;;;;1.00;0.00;;;;;9.39;54.45;101848.06;5074741;27;49685;-67
2022/02/19 10:47:23;;;;;;;;;3.00;1.25;;;;;9.51;52.69;101845.03;5071081;27;49819;-64
2022/02/19 10:50:07;;;;;;;;;2.75;1.00;;;;;9.67;53.00;101848.38;5072137;27;49851;-65
2022/02/19 10:52:33;;;;;;;;;1.50;1.50;;;;;9.63;52.49;101814.09;5076023;27;50652;-65
2022/02/19 10:55:07;;;;;;;;;2.00;2.00;;;;;9.67;50.85;101816.91;5080143;27;49817;-65
2022/02/19 10:57:40;;;;;;;;;3.50;0.50;;;;;9.74;50.94;101826.81;5073144;27;49771;-65
2022/02/19 11:00:18;;;;;;;;;2.75;1.75;;;;;9.81;51.38;101834.94;5072819;27;49974;-66
2022/02/19 11:02:46;;;;;;;;;0.25;0.25;;;;;9.78;51.07;101840.06;5054789;28;50521;-65
2022/02/19 11:05:13;;;;;;;;;1.75;1.75;;;;;9.76;51.60;101840.00;5075078;27;49792;-65
2022/02/19 11:07:41;;;;;;;;;3.00;1.25;;;;;9.31;51.53;101763.84;5070135;28;49810;-66
2022/02/19 11:10:14;;;;;;;;;0.75;0.00;;;;;9.55;50.79;101811.16;5070217;28;49937;-66
2022/02/19 11:12:40;;;;;;;;;0.50;0.50;;;;;9.59;49.74;101825.31;5070045;28;49829;-66
2022/02/19 11:15:07;;;;;;;;;0.00;0.00;;;;;9.72;50.45;101840.69;5070670;28;49868;-65
2022/02/19 11:17:34;;;;;;;;;0.00;0.00;;;;;9.57;50.57;101819.09;5070446;28;50114;-66
2022/02/19 11:20:03;;;;;;;;;1.75;0.00;;;;;9.73;50.50;101838.13;5071096;28;49850;-65
2022/02/19 11:22:31;;;;;;;;;3.75;0.75;;;;;9.29;50.04;101754.16;5070892;28;51616;-65
2022/02/19 11:24:57;;;;;;;;;2.00;0.50;;;;;9.74;50.52;101820.66;5071269;28;49906;-65
2022/02/19 11:27:27;;;;;;;;;0.00;0.00;;;;;9.55;50.28;101777.06;5071258;28;49652;-65
2022/02/19 11:29:55;;;;;;;;;1.00;1.00;;;;;9.64;49.93;101794.91;5071175;28;49933;-65
2022/02/19 11:32:22;;;;;;;;;1.00;1.00;;;;;9.85;50.49;101818.50;5070739;27;49726;-66
2022/02/19 11:34:51;;;;;;;;;1.25;1.00;;;;;9.69;50.10;101777.66;5070872;28;49993;-65
2022/02/19 11:37:22;;;;;;;;;0.00;0.00;;;;;9.46;49.11;101726.91;5071097;28;49767;-65
2022/02/19 11:40:10;;;;;;;;;0.00;0.00;;;;;9.92;48.55;101796.91;5071152;28;49808;-64